createdAt,value
2019-01-03T05:03:10.892Z,93.80
2019-01-03T05:06:05.375Z,94.00
2019-01-03T05:08:59.722Z,93.80
2019-01-03T05:11:53.912Z,93.60
2019-01-03T05:14:48.067Z,93.90
2019-01-03T06:02:57.321Z,94.50
2019-01-03T06:05:38.191Z,95.00
2019-01-03T06:08:13.973Z,95.00
2019-01-03T06:10:47.544Z,95.10
2019-01-03T06:13:38.905Z,94.80
2019-01-03T07:01:53.736Z,95.30
2019-01-03T07:04:45.274Z,95.40
2019-01-03T07:07:39.312Z,95.60
2019-01-03T07:10:20.089Z,95.60
2019-01-03T07:13:08.961Z,95.60
2019-01-03T08:02:51.688Z,95.20
2019-01-03T08:05:33.584Z,95.00
2019-01-03T08:08:14.230Z,95.10
2019-01-03T08:11:11.638Z,95.30
2019-01-03T08:13:47.779Z,95.30
2019-01-03T08:22:16.123Z,95.20
2019-01-03T08:25:13.675Z,95.10
2019-01-03T08:28:07.963Z,95.00
2019-01-03T08:30:52.757Z,94.80
2019-01-03T08:33:40.851Z,94.60
2019-01-03T08:36:28.971Z,94.40
2019-01-03T08:39:19.782Z,94.60
2019-01-03T08:42:00.450Z,94.50
2019-01-03T08:44:41.486Z,94.30
2019-01-03T08:47:29.447Z,94.30
2019-01-03T08:50:10.003Z,94.30
2019-01-03T08:53:04.288Z,94.50
2019-01-03T08:55:49.286Z,94.90
2019-01-03T08:58:29.825Z,94.30
2019-01-03T09:01:15.067Z,94.80
2019-01-03T09:03:56.994Z,94.20
2019-01-03T09:06:37.615Z,93.70
2019-01-03T09:09:28.611Z,93.60
2019-01-03T09:12:10.605Z,93.70
2019-01-03T09:14:50.759Z,93.50
2019-01-03T10:00:57.520Z,90.60
2019-01-03T10:03:32.775Z,90.50
2019-01-03T10:06:07.931Z,90.30
2019-01-03T10:08:43.067Z,89.40
2019-01-03T10:11:05.508Z,89.50
2019-01-03T10:13:40.371Z,89.90
2019-01-03T15:00:17.774Z,85.50
2019-01-03T15:02:59.710Z,86.20
2019-01-03T15:05:35.163Z,87.30
2019-01-03T15:08:10.059Z,87.70
2019-01-03T15:10:45.198Z,88.70
2019-01-03T18:02:46.892Z,95.00
2019-01-03T18:05:21.906Z,95.30
2019-01-03T18:07:57.023Z,95.20
2019-01-03T18:10:32.173Z,95.30
2019-01-03T18:13:07.190Z,95.30
2019-01-03T19:02:47.764Z,95.50
2019-01-03T19:05:29.350Z,95.50
2019-01-03T19:10:56.617Z,95.40
2019-01-03T19:13:31.721Z,95.30
2019-01-03T19:15:55.928Z,95.30
2019-01-03T19:18:18.371Z,95.60
2019-01-03T19:20:40.828Z,95.30
2019-01-03T19:23:03.406Z,95.10
2019-01-03T19:25:25.930Z,95.20
2019-01-03T19:28:00.999Z,95.10
2019-01-03T19:30:36.222Z,95.00
2019-01-03T19:33:11.190Z,95.20
2019-01-03T19:35:46.487Z,95.10
2019-01-03T19:38:21.467Z,95.00
2019-01-03T19:40:56.479Z,95.00
2019-01-03T19:43:31.355Z,95.00
2019-01-03T19:46:06.416Z,95.00
2019-01-03T19:48:41.535Z,95.00
2019-01-03T19:51:16.329Z,95.00
2019-01-03T19:53:51.359Z,95.10
2019-01-03T19:56:26.453Z,94.90
2019-01-03T19:59:01.735Z,94.90
2019-01-03T20:01:36.835Z,94.90
2019-01-03T20:04:11.923Z,94.80
2019-01-03T20:06:47.115Z,94.60
2019-01-03T20:09:22.455Z,94.70
2019-01-03T20:11:57.773Z,94.80
2019-01-03T20:14:32.924Z,94.70
2019-01-03T21:02:49.731Z,97.30
2019-01-03T21:05:24.722Z,97.10
2019-01-03T21:08:00.003Z,97.20
2019-01-03T21:10:35.908Z,97.00
2019-01-03T21:13:11.258Z,97.20
